sensor_id;sensor_type;location;lat;lon;timestamp;pressure;altitude;pressure_sealevel;temperature;humidity
8318;BME280;4196;48.926;8.964;2023-04-15T00:00:46;98123.25;;;1.66;100.00
8318;BME280;4196;48.926;8.964;2023-04-15T00:03:32;98116.53;;;1.73;100.00
8318;BME280;4196;48.926;8.964;2023-04-15T00:06:20;98115.75;;;1.77;100.00
8318;BME280;4196;48.926;8.964;2023-04-15T00:09:07;98108.72;;;1.63;100.00
8318;BME280;4196;48.926;8.964;2023-04-15T00:11:53;98109.59;;;1.64;100.00
8318;BME280;4196;48.926;8.964;2023-04-15T00:14:40;98109.44;;;1.56;100.00
8318;BME280;4196;48.926;8.964;2023-04-15T00:17:26;98075.25;;;1.45;100.00
8318;BME280;4196;48.926;8.964;2023-04-15T00:20:13;98060.38;;;1.71;100.00
8318;BME280;4196;48.926;8.964;2023-04-15T00:23:00;98119.59;;;2.03;100.00
8318;BME280;4196;48.926;8.964;2023-04-15T00:25:46;98040.63;;;1.59;100.00
8318;BME280;4196;48.926;8.964;2023-04-15T00:28:33;98121.91;;;1.88;100.00
8318;BME280;4196;48.926;8.964;2023-04-15T00:31:19;98118.88;;;1.60;100.00
8318;BME280;4196;48.926;8.964;2023-04-15T00:34:06;98090.22;;;1.27;100.00
8318;BME280;4196;48.926;8.964;2023-04-15T00:36:53;98080.72;;;1.19;100.00
8318;BME280;4196;48.926;8.964;2023-04-15T00:39:39;98093.47;;;1.18;100.00
8318;BME280;4196;48.926;8.964;2023-04-15T00:42:26;98106.16;;;1.15;100.00
8318;BME280;4196;48.926;8.964;2023-04-15T00:45:12;98103.50;;;1.10;100.00
8318;BME280;4196;48.926;8.964;2023-04-15T00:47:59;98101.16;;;1.21;100.00
8318;BME280;4196;48.926;8.964;2023-04-15T00:50:46;98096.63;;;1.06;100.00
8318;BME280;4196;48.926;8.964;2023-04-15T00:53:32;98046.13;;;0.87;100.00
8318;BME280;4196;48.926;8.964;2023-04-15T00:56:20;98075.28;;;1.01;100.00
8318;BME280;4196;48.926;8.964;2023-04-15T00:59:09;98117.34;;;1.23;100.00
8318;BME280;4196;48.926;8.964;2023-04-15T01:01:55;98077.06;;;1.05;100.00
8318;BME280;4196;48.926;8.964;2023-04-15T01:04:42;98024.53;;;0.68;100.00
8318;BME280;4196;48.926;8.964;2023-04-15T01:07:29;98117.16;;;1.14;100.00
8318;BME280;4196;48.926;8.964;2023-04-15T01:10:17;98116.22;;;1.10;100.00
8318;BME280;4196;48.926;8.964;2023-04-15T01:13:04;98111.97;;;1.09;100.00
8318;BME280;4196;48.926;8.964;2023-04-15T01:15:51;98067.56;;;0.96;100.00
8318;BME280;4196;48.926;8.964;2023-04-15T01:18:38;98101.97;;;1.18;100.00
8318;BME280;4196;48.926;8.964;2023-04-15T01:21:25;98093.53;;;1.23;100.00
8318;BME280;4196;48.926;8.964;2023-04-15T01:24:14;98107.44;;;1.38;100.00
8318;BME280;4196;48.926;8.964;2023-04-15T01:27:03;98079.69;;;1.08;100.00
8318;BME280;4196;48.926;8.964;2023-04-15T01:29:50;98097.78;;;1.22;100.00
8318;BME280;4196;48.926;8.964;2023-04-15T01:32:37;98015.59;;;0.46;100.00
8318;BME280;4196;48.926;8.964;2023-04-15T01:35:23;98089.09;;;0.70;100.00
8318;BME280;4196;48.926;8.964;2023-04-15T01:38:10;98059.66;;;0.42;100.00
8318;BME280;4196;48.926;8.964;2023-04-15T01:40:57;98061.59;;;0.54;100.00
8318;BME280;4196;48.926;8.964;2023-04-15T01:43:44;98052.84;;;0.41;100.00
8318;BME280;4196;48.926;8.964;2023-04-15T01:46:30;98080.03;;;0.42;100.00
8318;BME280;4196;48.926;8.964;2023-04-15T01:49:18;98055.09;;;0.66;100.00
8318;BME280;4196;48.926;8.964;2023-04-15T01:52:05;98006.31;;;0.48;100.00
8318;BME280;4196;48.926;8.964;2023-04-15T01:54:52;98078.38;;;0.85;100.00
8318;BME280;4196;48.926;8.964;2023-04-15T01:57:39;98106.50;;;0.89;100.00
8318;BME280;4196;48.926;8.964;2023-04-15T02:00:25;98090.63;;;0.62;100.00
8318;BME280;4196;48.926;8.964;2023-04-15T02:03:12;98103.19;;;0.54;100.00
8318;BME280;4196;48.926;8.964;2023-04-15T02:05:58;98075.63;;;0.33;100.00
8318;BME280;4196;48.926;8.964;2023-04-15T02:08:46;98092.44;;;0.28;100.00
8318;BME280;4196;48.926;8.964;2023-04-15T02:11:32;98046.31;;;0.14;100.00
8318;BME280;4196;48.926;8.964;2023-04-15T02:14:22;98084.38;;;0.47;100.00
8318;BME280;4196;48.926;8.964;2023-04-15T02:17:08;98108.91;;;0.44;100.00
8318;BME280;4196;48.926;8.964;2023-04-15T02:19:55;98031.00;;;0.11;100.00
8318;BME280;4196;48.926;8.964;2023-04-15T02:22:43;98094.69;;;0.52;100.00
8318;BME280;4196;48.926;8.964;2023-04-15T02:25:29;98082.34;;;0.33;100.00
8318;BME280;4196;48.926;8.964;2023-04-15T02:28:15;98071.09;;;0.21;100.00
8318;BME280;4196;48.926;8.964;2023-04-15T02:31:07;98066.84;;;0.22;100.00
8318;BME280;4196;48.926;8.964;2023-04-15T02:33:54;98058.03;;;0.06;100.00
8318;BME280;4196;48.926;8.964;2023-04-15T02:36:41;98093.63;;;0.44;100.00
8318;BME280;4196;48.926;8.964;2023-04-15T02:39:28;98023.22;;;0.05;100.00
8318;BME280;4196;48.926;8.964;2023-04-15T02:42:14;98078.88;;;0.29;100.00
8318;BME280;4196;48.926;8.964;2023-04-15T02:45:01;98077.22;;;0.30;100.00
8318;BME280;4196;48.926;8.964;2023-04-15T02:47:51;98033.88;;;-0.11;100.00
8318;BME280;4196;48.926;8.964;2023-04-15T02:50:38;98043.00;;;-0.19;100.00
8318;BME280;4196;48.926;8.964;2023-04-15T02:53:27;98090.69;;;0.26;100.00
8318;BME280;4196;48.926;8.964;2023-04-15T02:56:14;98038.31;;;-0.03;100.00
8318;BME280;4196;48.926;8.964;2023-04-15T02:59:02;98071.66;;;0.08;100.00
8318;BME280;4196;48.926;8.964;2023-04-15T03:01:50;98042.47;;;-0.06;100.00
8318;BME280;4196;48.926;8.964;2023-04-15T03:04:36;98046.53;;;0.23;100.00
8318;BME280;4196;48.926;8.964;2023-04-15T03:07:23;98047.72;;;0.39;100.00
8318;BME280;4196;48.926;8.964;2023-04-15T03:10:09;98052.09;;;0.45;100.00
8318;BME280;4196;48.926;8.964;2023-04-15T03:12:56;98062.53;;;0.57;100.00
8318;BME280;4196;48.926;8.964;2023-04-15T03:15:45;98066.56;;;0.47;100.00
8318;BME280;4196;48.926;8.964;2023-04-15T03:18:31;98042.13;;;0.16;100.00
8318;BME280;4196;48.926;8.964;2023-04-15T03:21:21;98069.91;;;0.07;100.00
8318;BME280;4196;48.926;8.964;2023-04-15T03:24:09;98053.53;;;-0.04;100.00
8318;BME280;4196;48.926;8.964;2023-04-15T03:26:56;98093.22;;;0.24;100.00
8318;BME280;4196;48.926;8.964;2023-04-15T03:29:43;98050.66;;;-0.19;100.00
8318;BME280;4196;48.926;8.964;2023-04-15T03:32:30;98093.66;;;0.06;100.00
8318;BME280;4196;48.926;8.964;2023-04-15T03:35:16;98090.22;;;0.04;100.00
8318;BME280;4196;48.926;8.964;2023-04-15T03:38:03;98092.00;;;0.08;100.00
8318;BME280;4196;48.926;8.964;2023-04-15T03:40:49;98031.31;;;-0.11;100.00
8318;BME280;4196;48.926;8.964;2023-04-15T03:43:35;98029.00;;;-0.02;100.00
8318;BME280;4196;48.926;8.964;2023-04-15T03:46:21;98085.19;;;0.45;100.00
8318;BME280;4196;48.926;8.964;2023-04-15T03:49:08;98074.09;;;0.43;100.00
8318;BME280;4196;48.926;8.964;2023-04-15T03:51:54;98038.13;;;0.28;100.00
8318;BME280;4196;48.926;8.964;2023-04-15T03:54:41;98056.97;;;0.36;100.00
8318;BME280;4196;48.926;8.964;2023-04-15T03:57:28;98055.03;;;0.26;100.00
8318;BME280;4196;48.926;8.964;2023-04-15T04:00:14;98057.09;;;0.03;100.00
8318;BME280;4196;48.926;8.964;2023-04-15T04:03:01;98055.22;;;-0.06;100.00
8318;BME280;4196;48.926;8.964;2023-04-15T04:05:47;98069.38;;;-0.16;100.00
8318;BME280;4196;48.926;8.964;2023-04-15T04:08:34;98072.34;;;0.03;100.00
8318;BME280;4196;48.926;8.964;2023-04-15T04:11:20;98087.03;;;0.14;100.00
8318;BME280;4196;48.926;8.964;2023-04-15T04:14:07;98107.47;;;0.17;100.00
8318;BME280;4196;48.926;8.964;2023-04-15T04:16:54;98054.88;;;-0.20;100.00
8318;BME280;4196;48.926;8.964;2023-04-15T04:19:40;98110.59;;;0.06;100.00
8318;BME280;4196;48.926;8.964;2023-04-15T04:22:27;98096.44;;;0.17;100.00
8318;BME280;4196;48.926;8.964;2023-04-15T04:25:13;98056.66;;;-0.17;100.00
8318;BME280;4196;48.926;8.964;2023-04-15T04:27:59;98081.97;;;-0.22;100.00
8318;BME280;4196;48.926;8.964;2023-04-15T04:30:45;97996.00;;;-0.71;100.00
8318;BME280;4196;48.926;8.964;2023-04-15T04:33:32;98089.22;;;-0.37;100.00
8318;BME280;4196;48.926;8.964;2023-04-15T04:36:19;98107.72;;;-0.08;100.00
8318;BME280;4196;48.926;8.964;2023-04-15T04:39:05;98054.91;;;-0.55;100.00
8318;BME280;4196;48.926;8.964;2023-04-15T04:41:52;98060.00;;;-0.53;100.00
8318;BME280;4196;48.926;8.964;2023-04-15T04:44:38;98080.72;;;-0.38;100.00
8318;BME280;4196;48.926;8.964;2023-04-15T04:47:25;98088.41;;;-0.36;100.00
8318;BME280;4196;48.926;8.964;2023-04-15T04:50:11;98120.16;;;-0.20;100.00
8318;BME280;4196;48.926;8.964;2023-04-15T04:52:57;98068.66;;;-0.46;100.00
8318;BME280;4196;48.926;8.964;2023-04-15T04:55:44;98093.03;;;-0.20;100.00
8318;BME280;4196;48.926;8.964;2023-04-15T04:58:30;98128.69;;;0.16;100.00
8318;BME280;4196;48.926;8.964;2023-04-15T05:01:17;98117.75;;;0.20;100.00
8318;BME280;4196;48.926;8.964;2023-04-15T05:04:03;98139.88;;;0.24;100.00
8318;BME280;4196;48.926;8.964;2023-04-15T05:06:50;98129.81;;;0.29;100.00
8318;BME280;4196;48.926;8.964;2023-04-15T05:09:37;98073.97;;;-0.01;100.00
8318;BME280;4196;48.926;8.964;2023-04-15T05:12:23;98127.84;;;0.17;100.00
8318;BME280;4196;48.926;8.964;2023-04-15T05:15:10;98135.72;;;0.28;100.00
8318;BME280;4196;48.926;8.964;2023-04-15T05:17:56;98129.50;;;0.15;100.00
8318;BME280;4196;48.926;8.964;2023-04-15T05:20:43;98142.78;;;0.40;100.00
8318;BME280;4196;48.926;8.964;2023-04-15T05:23:29;98132.06;;;0.55;100.00
8318;BME280;4196;48.926;8.964;2023-04-15T05:26:15;98108.38;;;0.57;100.00
8318;BME280;4196;48.926;8.964;2023-04-15T05:29:02;98129.16;;;0.77;100.00
8318;BME280;4196;48.926;8.964;2023-04-15T05:31:49;98125.28;;;0.94;100.00
8318;BME280;4196;48.926;8.964;2023-04-15T05:34:35;98090.00;;;1.16;100.00
8318;BME280;4196;48.926;8.964;2023-04-15T05:37:22;98105.16;;;1.54;100.00
8318;BME280;4196;48.926;8.964;2023-04-15T05:40:08;98139.94;;;1.99;100.00
8318;BME280;4196;48.926;8.964;2023-04-15T05:42:55;98079.28;;;1.82;100.00
8318;BME280;4196;48.926;8.964;2023-04-15T05:45:42;98136.00;;;2.19;100.00
8318;BME280;4196;48.926;8.964;2023-04-15T05:48:28;98111.47;;;2.29;100.00
8318;BME280;4196;48.926;8.964;2023-04-15T05:51:14;98055.81;;;2.06;100.00
8318;BME280;4196;48.926;8.964;2023-04-15T05:54:01;98130.44;;;2.46;100.00
8318;BME280;4196;48.926;8.964;2023-04-15T05:56:47;98116.75;;;2.41;100.00
8318;BME280;4196;48.926;8.964;2023-04-15T05:59:34;98133.25;;;2.63;100.00
8318;BME280;4196;48.926;8.964;2023-04-15T06:02:20;98125.31;;;2.43;100.00
8318;BME280;4196;48.926;8.964;2023-04-15T06:05:07;98134.84;;;2.55;100.00
8318;BME280;4196;48.926;8.964;2023-04-15T06:07:55;98137.47;;;2.61;100.00
8318;BME280;4196;48.926;8.964;2023-04-15T06:10:41;98139.97;;;2.55;100.00
8318;BME280;4196;48.926;8.964;2023-04-15T06:13:28;98116.66;;;2.35;100.00
8318;BME280;4196;48.926;8.964;2023-04-15T06:16:14;98109.09;;;2.42;100.00
8318;BME280;4196;48.926;8.964;2023-04-15T06:19:01;98147.56;;;2.52;100.00
8318;BME280;4196;48.926;8.964;2023-04-15T06:21:48;98134.91;;;2.59;100.00
8318;BME280;4196;48.926;8.964;2023-04-15T06:24:34;98146.47;;;2.98;100.00
8318;BME280;4196;48.926;8.964;2023-04-15T06:27:22;98139.00;;;3.12;100.00
8318;BME280;4196;48.926;8.964;2023-04-15T06:30:09;98153.81;;;3.39;100.00
8318;BME280;4196;48.926;8.964;2023-04-15T06:32:55;98136.69;;;3.35;100.00
8318;BME280;4196;48.926;8.964;2023-04-15T06:35:41;98155.00;;;3.72;100.00
8318;BME280;4196;48.926;8.964;2023-04-15T06:38:28;98157.69;;;3.84;100.00
8318;BME280;4196;48.926;8.964;2023-04-15T06:41:14;98160.34;;;3.95;100.00
8318;BME280;4196;48.926;8.964;2023-04-15T06:44:01;98130.31;;;3.77;100.00
8318;BME280;4196;48.926;8.964;2023-04-15T06:46:47;98149.25;;;3.94;100.00
8318;BME280;4196;48.926;8.964;2023-04-15T06:49:34;98126.91;;;3.78;100.00
8318;BME280;4196;48.926;8.964;2023-04-15T06:52:21;98149.41;;;4.13;100.00
8318;BME280;4196;48.926;8.964;2023-04-15T06:55:07;98158.22;;;4.47;100.00
8318;BME280;4196;48.926;8.964;2023-04-15T06:57:53;98165.28;;;4.83;100.00
8318;BME280;4196;48.926;8.964;2023-04-15T07:00:40;98148.28;;;5.03;100.00
8318;BME280;4196;48.926;8.964;2023-04-15T07:03:27;98103.69;;;4.77;100.00
8318;BME280;4196;48.926;8.964;2023-04-15T07:06:17;98163.75;;;5.25;100.00
8318;BME280;4196;48.926;8.964;2023-04-15T07:09:03;98144.13;;;5.31;100.00
8318;BME280;4196;48.926;8.964;2023-04-15T07:11:50;98144.16;;;5.44;100.00
8318;BME280;4196;48.926;8.964;2023-04-15T07:14:37;98157.91;;;5.56;100.00
8318;BME280;4196;48.926;8.964;2023-04-15T07:17:23;98166.50;;;5.75;100.00
8318;BME280;4196;48.926;8.964;2023-04-15T07:20:10;98156.22;;;5.80;100.00
8318;BME280;4196;48.926;8.964;2023-04-15T07:22:57;98157.13;;;6.07;100.00
8318;BME280;4196;48.926;8.964;2023-04-15T07:25:44;98119.44;;;6.02;100.00
8318;BME280;4196;48.926;8.964;2023-04-15T07:28:30;98110.88;;;6.34;96.53
8318;BME280;4196;48.926;8.964;2023-04-15T07:31:17;98113.41;;;6.57;96.96
8318;BME280;4196;48.926;8.964;2023-04-15T07:34:06;98145.00;;;7.10;99.23
8318;BME280;4196;48.926;8.964;2023-04-15T07:36:52;98134.63;;;7.28;97.65
8318;BME280;4196;48.926;8.964;2023-04-15T07:39:38;98115.69;;;7.41;97.97
8318;BME280;4196;48.926;8.964;2023-04-15T07:42:25;98104.44;;;7.59;96.60
8318;BME280;4196;48.926;8.964;2023-04-15T07:45:12;98127.34;;;7.97;95.80
8318;BME280;4196;48.926;8.964;2023-04-15T07:47:58;98088.59;;;8.08;93.34
8318;BME280;4196;48.926;8.964;2023-04-15T07:50:45;98127.72;;;8.59;89.65
8318;BME280;4196;48.926;8.964;2023-04-15T07:53:31;98118.13;;;8.72;84.24
8318;BME280;4196;48.926;8.964;2023-04-15T07:56:18;98112.63;;;9.03;82.25
8318;BME280;4196;48.926;8.964;2023-04-15T07:59:04;98107.09;;;9.33;76.28
8318;BME280;4196;48.926;8.964;2023-04-15T08:01:51;98130.75;;;9.66;78.59
8318;BME280;4196;48.926;8.964;2023-04-15T08:04:38;98088.59;;;9.62;76.54
8318;BME280;4196;48.926;8.964;2023-04-15T08:07:24;98097.66;;;9.89;76.42
8318;BME280;4196;48.926;8.964;2023-04-15T08:10:11;98119.06;;;9.99;74.88
8318;BME280;4196;48.926;8.964;2023-04-15T08:12:58;98100.97;;;9.98;73.03
8318;BME280;4196;48.926;8.964;2023-04-15T08:15:44;98131.06;;;10.03;75.20
8318;BME280;4196;48.926;8.964;2023-04-15T08:18:31;98128.06;;;10.32;73.25
8318;BME280;4196;48.926;8.964;2023-04-15T08:21:18;98126.84;;;10.53;70.48
8318;BME280;4196;48.926;8.964;2023-04-15T08:24:05;98112.16;;;10.54;67.14
8318;BME280;4196;48.926;8.964;2023-04-15T08:26:52;98135.19;;;10.68;68.37
8318;BME280;4196;48.926;8.964;2023-04-15T08:29:38;98129.47;;;10.97;67.01
8318;BME280;4196;48.926;8.964;2023-04-15T08:32:25;98130.16;;;11.06;68.20
8318;BME280;4196;48.926;8.964;2023-04-15T08:35:12;98131.72;;;11.15;70.28
8318;BME280;4196;48.926;8.964;2023-04-15T08:37:59;98100.66;;;11.13;67.11
8318;BME280;4196;48.926;8.964;2023-04-15T08:40:45;98126.09;;;11.36;65.39
8318;BME280;4196;48.926;8.964;2023-04-15T08:43:42;98105.31;;;11.40;67.25
8318;BME280;4196;48.926;8.964;2023-04-15T08:46:32;98126.41;;;12.02;66.28
8318;BME280;4196;48.926;8.964;2023-04-15T08:49:20;98097.84;;;12.03;64.11
8318;BME280;4196;48.926;8.964;2023-04-15T08:52:08;98074.53;;;12.02;64.22
8318;BME280;4196;48.926;8.964;2023-04-15T08:54:56;98121.50;;;12.27;65.11
8318;BME280;4196;48.926;8.964;2023-04-15T08:57:44;98076.47;;;12.28;63.97
8318;BME280;4196;48.926;8.964;2023-04-15T09:00:31;98118.63;;;12.72;63.50
8318;BME280;4196;48.926;8.964;2023-04-15T09:03:19;98114.91;;;12.80;63.37
8318;BME280;4196;48.926;8.964;2023-04-15T09:06:08;98122.47;;;12.90;60.02
8318;BME280;4196;48.926;8.964;2023-04-15T09:08:55;98097.28;;;12.59;61.71
8318;BME280;4196;48.926;8.964;2023-04-15T09:11:41;98127.75;;;12.87;61.01
8318;BME280;4196;48.926;8.964;2023-04-15T09:14:28;98127.41;;;12.99;59.85
8318;BME280;4196;48.926;8.964;2023-04-15T09:17:18;98126.91;;;13.17;59.98
8318;BME280;4196;48.926;8.964;2023-04-15T09:20:07;98100.13;;;13.15;59.01
8318;BME280;4196;48.926;8.964;2023-04-15T09:22:54;98133.22;;;13.40;60.22
8318;BME280;4196;48.926;8.964;2023-04-15T09:25:41;98113.38;;;13.37;58.72
8318;BME280;4196;48.926;8.964;2023-04-15T09:28:28;98132.81;;;13.55;58.35
8318;BME280;4196;48.926;8.964;2023-04-15T09:31:15;98123.56;;;13.73;58.13
8318;BME280;4196;48.926;8.964;2023-04-15T09:34:02;98111.31;;;14.05;56.42
8318;BME280;4196;48.926;8.964;2023-04-15T09:36:54;98132.41;;;14.52;55.29
8318;BME280;4196;48.926;8.964;2023-04-15T09:39:48;98139.00;;;14.62;54.61
8318;BME280;4196;48.926;8.964;2023-04-15T09:42:36;98136.59;;;15.06;54.12
8318;BME280;4196;48.926;8.964;2023-04-15T09:45:23;98098.88;;;14.91;52.55
8318;BME280;4196;48.926;8.964;2023-04-15T09:48:15;98136.00;;;15.22;51.30
8318;BME280;4196;48.926;8.964;2023-04-15T09:51:02;98134.13;;;15.03;49.08
8318;BME280;4196;48.926;8.964;2023-04-15T09:53:53;98112.38;;;15.02;50.25
8318;BME280;4196;48.926;8.964;2023-04-15T09:56:39;98106.19;;;14.30;43.51
8318;BME280;4196;48.926;8.964;2023-04-15T09:59:28;98099.06;;;14.35;44.67
8318;BME280;4196;48.926;8.964;2023-04-15T10:02:17;98128.19;;;14.46;41.00
8318;BME280;4196;48.926;8.964;2023-04-15T10:05:06;98139.00;;;14.62;41.57
8318;BME280;4196;48.926;8.964;2023-04-15T10:07:55;98119.44;;;14.48;43.19
8318;BME280;4196;48.926;8.964;2023-04-15T10:10:44;98111.66;;;14.20;43.98
8318;BME280;4196;48.926;8.964;2023-04-15T10:13:31;98143.63;;;14.79;43.17
8318;BME280;4196;48.926;8.964;2023-04-15T10:16:26;98107.19;;;14.52;42.71
8318;BME280;4196;48.926;8.964;2023-04-15T10:19:14;98126.59;;;14.42;42.64
8318;BME280;4196;48.926;8.964;2023-04-15T10:22:05;98155.50;;;14.34;43.52
8318;BME280;4196;48.926;8.964;2023-04-15T10:24:52;98098.03;;;13.86;44.61
8318;BME280;4196;48.926;8.964;2023-04-15T10:27:39;98127.50;;;14.41;44.12
8318;BME280;4196;48.926;8.964;2023-04-15T10:30:27;98157.13;;;14.65;44.76
8318;BME280;4196;48.926;8.964;2023-04-15T10:33:19;98149.69;;;14.79;45.82
8318;BME280;4196;48.926;8.964;2023-04-15T10:36:06;98156.81;;;14.47;46.10
8318;BME280;4196;48.926;8.964;2023-04-15T10:38:53;98129.31;;;14.39;46.44
8318;BME280;4196;48.926;8.964;2023-04-15T10:41:40;98149.63;;;14.27;47.87
8318;BME280;4196;48.926;8.964;2023-04-15T10:44:26;98169.72;;;14.24;48.00
8318;BME280;4196;48.926;8.964;2023-04-15T10:47:17;98133.56;;;14.15;49.15
8318;BME280;4196;48.926;8.964;2023-04-15T10:50:04;98159.00;;;14.33;49.53
8318;BME280;4196;48.926;8.964;2023-04-15T10:52:51;98148.63;;;14.32;50.07
8318;BME280;4196;48.926;8.964;2023-04-15T10:55:38;98178.41;;;14.78;47.68
8318;BME280;4196;48.926;8.964;2023-04-15T10:58:24;98148.00;;;14.78;46.03
8318;BME280;4196;48.926;8.964;2023-04-15T11:01:11;98134.50;;;14.65;46.18
8318;BME280;4196;48.926;8.964;2023-04-15T11:03:58;98169.00;;;14.73;47.07
8318;BME280;4196;48.926;8.964;2023-04-15T11:06:45;98188.72;;;14.54;47.37
8318;BME280;4196;48.926;8.964;2023-04-15T11:09:32;98142.97;;;14.45;47.26
8318;BME280;4196;48.926;8.964;2023-04-15T11:12:19;98177.78;;;14.43;48.19
8318;BME280;4196;48.926;8.964;2023-04-15T11:18:24;98167.56;;;14.90;47.79
8318;BME280;4196;48.926;8.964;2023-04-15T11:21:11;98127.41;;;14.70;47.10
8318;BME280;4196;48.926;8.964;2023-04-15T11:23:57;98123.91;;;14.71;46.92
8318;BME280;4196;48.926;8.964;2023-04-15T11:26:44;98160.19;;;14.78;49.25
8318;BME280;4196;48.926;8.964;2023-04-15T11:29:30;98172.06;;;15.35;49.86
8318;BME280;4196;48.926;8.964;2023-04-15T11:32:17;98168.22;;;15.45;46.79
8318;BME280;4196;48.926;8.964;2023-04-15T11:35:04;98186.88;;;15.34;46.05
8318;BME280;4196;48.926;8.964;2023-04-15T11:37:52;98192.97;;;15.10;47.34
8318;BME280;4196;48.926;8.964;2023-04-15T11:40:39;98193.38;;;14.97;45.71
8318;BME280;4196;48.926;8.964;2023-04-15T11:43:26;98125.59;;;14.97;44.81
8318;BME280;4196;48.926;8.964;2023-04-15T11:46:12;98102.78;;;15.28;44.53
8318;BME280;4196;48.926;8.964;2023-04-15T11:48:59;98163.25;;;15.86;44.02
8318;BME280;4196;48.926;8.964;2023-04-15T11:51:46;98160.84;;;16.03;42.73
8318;BME280;4196;48.926;8.964;2023-04-15T11:54:33;98171.88;;;15.88;42.59
8318;BME280;4196;48.926;8.964;2023-04-15T11:57:19;98162.13;;;15.69;43.78
8318;BME280;4196;48.926;8.964;2023-04-15T12:00:06;98186.84;;;16.06;43.81
8318;BME280;4196;48.926;8.964;2023-04-15T12:03:14;98173.47;;;16.14;43.49
8318;BME280;4196;48.926;8.964;2023-04-15T12:08:56;98214.50;;;15.63;42.35
8318;BME280;4196;48.926;8.964;2023-04-15T12:11:55;98194.88;;;15.05;45.66
8318;BME280;4196;48.926;8.964;2023-04-15T12:14:42;98243.97;;;14.37;50.60
8318;BME280;4196;48.926;8.964;2023-04-15T12:17:30;98226.41;;;13.86;54.38
8318;BME280;4196;48.926;8.964;2023-04-15T12:20:43;98222.66;;;13.65;55.53
8318;BME280;4196;48.926;8.964;2023-04-15T12:23:30;98249.84;;;13.55;55.97
8318;BME280;4196;48.926;8.964;2023-04-15T12:26:17;98231.31;;;13.35;55.41
8318;BME280;4196;48.926;8.964;2023-04-15T12:29:12;98267.94;;;13.27;53.98
8318;BME280;4196;48.926;8.964;2023-04-15T12:32:12;98282.75;;;13.23;53.45
8318;BME280;4196;48.926;8.964;2023-04-15T12:34:59;98237.06;;;13.13;52.92
8318;BME280;4196;48.926;8.964;2023-04-15T12:37:45;98255.03;;;13.22;54.46
8318;BME280;4196;48.926;8.964;2023-04-15T12:40:31;98246.47;;;13.51;53.42
8318;BME280;4196;48.926;8.964;2023-04-15T12:43:18;98245.53;;;13.54;53.10
8318;BME280;4196;48.926;8.964;2023-04-15T12:46:04;98241.94;;;12.93;51.47
8318;BME280;4196;48.926;8.964;2023-04-15T12:48:52;98254.31;;;12.44;52.73
8318;BME280;4196;48.926;8.964;2023-04-15T12:51:38;98278.59;;;12.80;51.35
8318;BME280;4196;48.926;8.964;2023-04-15T12:54:25;98264.03;;;12.73;50.46
8318;BME280;4196;48.926;8.964;2023-04-15T12:57:12;98285.41;;;12.85;50.09
8318;BME280;4196;48.926;8.964;2023-04-15T12:59:59;98293.06;;;13.26;49.48
8318;BME280;4196;48.926;8.964;2023-04-15T13:02:45;98290.72;;;12.81;49.25
8318;BME280;4196;48.926;8.964;2023-04-15T13:05:32;98277.19;;;12.67;48.27
8318;BME280;4196;48.926;8.964;2023-04-15T13:08:18;98317.88;;;13.04;49.10
8318;BME280;4196;48.926;8.964;2023-04-15T13:11:05;98268.06;;;12.87;48.99
8318;BME280;4196;48.926;8.964;2023-04-15T13:13:51;98312.88;;;12.95;46.44
8318;BME280;4196;48.926;8.964;2023-04-15T13:16:38;98280.59;;;12.69;46.43
8318;BME280;4196;48.926;8.964;2023-04-15T13:19:24;98276.50;;;12.59;46.57
8318;BME280;4196;48.926;8.964;2023-04-15T13:22:11;98304.63;;;12.77;46.99
8318;BME280;4196;48.926;8.964;2023-04-15T13:25:00;98289.81;;;12.81;45.83
8318;BME280;4196;48.926;8.964;2023-04-15T13:27:46;98315.66;;;12.89;45.59
8318;BME280;4196;48.926;8.964;2023-04-15T13:30:33;98280.00;;;12.94;45.87
8318;BME280;4196;48.926;8.964;2023-04-15T13:33:19;98262.72;;;12.93;44.67
8318;BME280;4196;48.926;8.964;2023-04-15T13:36:06;98325.97;;;13.27;46.04
8318;BME280;4196;48.926;8.964;2023-04-15T13:38:53;98288.66;;;12.94;38.42
8318;BME280;4196;48.926;8.964;2023-04-15T13:41:40;98351.06;;;13.28;38.05
8318;BME280;4196;48.926;8.964;2023-04-15T13:44:26;98317.03;;;13.03;38.82
8318;BME280;4196;48.926;8.964;2023-04-15T13:47:13;98343.22;;;12.94;39.94
8318;BME280;4196;48.926;8.964;2023-04-15T13:50:01;98326.88;;;12.52;39.04
8318;BME280;4196;48.926;8.964;2023-04-15T13:52:47;98323.13;;;12.26;39.56
8318;BME280;4196;48.926;8.964;2023-04-15T13:55:33;98374.69;;;12.42;40.96
8318;BME280;4196;48.926;8.964;2023-04-15T13:58:20;98299.69;;;11.88;41.62
8318;BME280;4196;48.926;8.964;2023-04-15T14:01:07;98372.69;;;12.13;42.13
8318;BME280;4196;48.926;8.964;2023-04-15T14:03:53;98347.88;;;11.99;42.19
8318;BME280;4196;48.926;8.964;2023-04-15T14:06:39;98380.59;;;12.08;43.71
8318;BME280;4196;48.926;8.964;2023-04-15T14:09:26;98373.16;;;11.88;43.73
8318;BME280;4196;48.926;8.964;2023-04-15T14:12:13;98385.88;;;12.02;44.21
8318;BME280;4196;48.926;8.964;2023-04-15T14:15:00;98368.72;;;11.95;45.54
8318;BME280;4196;48.926;8.964;2023-04-15T14:17:47;98380.38;;;12.17;44.54
8318;BME280;4196;48.926;8.964;2023-04-15T14:20:33;98369.78;;;11.81;45.04
8318;BME280;4196;48.926;8.964;2023-04-15T14:23:21;98360.41;;;11.74;46.16
8318;BME280;4196;48.926;8.964;2023-04-15T14:26:07;98350.03;;;11.74;46.02
8318;BME280;4196;48.926;8.964;2023-04-15T14:28:54;98377.75;;;11.72;47.36
8318;BME280;4196;48.926;8.964;2023-04-15T14:31:41;98357.81;;;11.76;47.24
8318;BME280;4196;48.926;8.964;2023-04-15T14:34:47;98420.72;;;11.89;47.38
8318;BME280;4196;48.926;8.964;2023-04-15T14:37:34;98383.69;;;11.29;48.01
8318;BME280;4196;48.926;8.964;2023-04-15T14:40:21;98372.75;;;11.10;49.12
8318;BME280;4196;48.926;8.964;2023-04-15T14:43:08;98430.16;;;11.42;49.91
8318;BME280;4196;48.926;8.964;2023-04-15T14:45:54;98394.25;;;11.17;50.05
8318;BME280;4196;48.926;8.964;2023-04-15T14:48:41;98380.66;;;11.03;51.05
8318;BME280;4196;48.926;8.964;2023-04-15T14:51:28;98401.91;;;11.25;51.37
8318;BME280;4196;48.926;8.964;2023-04-15T14:54:14;98422.50;;;11.32;50.81
8318;BME280;4196;48.926;8.964;2023-04-15T14:57:01;98424.22;;;11.33;51.28
8318;BME280;4196;48.926;8.964;2023-04-15T14:59:48;98432.66;;;11.45;51.81
8318;BME280;4196;48.926;8.964;2023-04-15T15:02:35;98459.19;;;11.62;52.09
8318;BME280;4196;48.926;8.964;2023-04-15T15:05:28;98462.00;;;11.50;52.34
8318;BME280;4196;48.926;8.964;2023-04-15T15:08:14;98426.75;;;11.36;52.85
8318;BME280;4196;48.926;8.964;2023-04-15T15:11:01;98421.56;;;11.36;52.46
8318;BME280;4196;48.926;8.964;2023-04-15T15:13:47;98432.63;;;11.49;53.26
8318;BME280;4196;48.926;8.964;2023-04-15T15:16:33;98420.38;;;11.57;51.14